createdAt,value
2018-04-15T00:00:53.948Z,1007.69
2018-04-15T00:01:53.931Z,1007.71
2018-04-15T00:02:53.918Z,1007.71
2018-04-15T00:03:53.902Z,1007.69
2018-04-15T00:04:53.889Z,1007.62
2018-04-15T00:05:53.869Z,1007.68
2018-04-15T00:06:53.856Z,1007.65
2018-04-15T00:07:53.840Z,1007.6
2018-04-15T00:08:53.825Z,1007.6
2018-04-15T00:09:53.815Z,1007.58
2018-04-15T00:10:53.796Z,1007.57
2018-04-15T00:11:53.782Z,1007.56
2018-04-15T00:12:53.767Z,1007.59
2018-04-15T00:13:53.753Z,1007.56
2018-04-15T00:14:53.736Z,1007.56
2018-04-15T00:15:53.724Z,1007.57
2018-04-15T00:16:53.709Z,1007.53
2018-04-15T00:17:53.695Z,1007.55
2018-04-15T00:18:53.677Z,1007.48
2018-04-15T00:19:53.660Z,1007.51
2018-04-15T00:20:53.646Z,1007.56
2018-04-15T00:21:53.633Z,1007.51
2018-04-15T00:22:53.616Z,1007.52
2018-04-15T00:23:53.600Z,1007.54
2018-04-15T00:24:53.585Z,1007.51
2018-04-15T00:25:53.571Z,1007.51
2018-04-15T00:26:53.556Z,1007.47
2018-04-15T00:27:53.540Z,1007.5
2018-04-15T00:28:53.535Z,1007.55
2018-04-15T00:29:53.713Z,1007.57
2018-04-15T00:30:53.500Z,1007.53
2018-04-15T00:31:53.482Z,1007.54
2018-04-15T00:32:53.475Z,1007.51
2018-04-15T00:33:53.454Z,1007.51
2018-04-15T00:34:53.436Z,1007.54
2018-04-15T00:35:53.420Z,1007.49
2018-04-15T00:36:53.405Z,1007.47
2018-04-15T00:37:53.388Z,1007.47
2018-04-15T00:38:53.375Z,1007.49
2018-04-15T00:39:53.360Z,1007.44
2018-04-15T00:40:53.344Z,1007.47
2018-04-15T00:41:53.333Z,1007.52
2018-04-15T00:42:53.313Z,1007.65
2018-04-15T00:43:53.298Z,1007.72
2018-04-15T00:44:53.285Z,1007.82
2018-04-15T00:45:53.266Z,1007.85
2018-04-15T00:46:53.253Z,1007.92
2018-04-15T00:47:53.240Z,1007.95
2018-04-15T00:48:53.222Z,1007.92
2018-04-15T00:49:53.207Z,1007.96
2018-04-15T00:50:53.191Z,1007.97
2018-04-15T00:51:53.177Z,1008.01
2018-04-15T00:52:53.164Z,1008.05
2018-04-15T00:53:53.148Z,1008.04
2018-04-15T00:54:53.133Z,1008.01
2018-04-15T00:55:53.117Z,1007.94
2018-04-15T00:56:53.102Z,1007.99
2018-04-15T00:57:53.100Z,1007.99
2018-04-15T00:58:53.073Z,1007.98
2018-04-15T00:59:53.057Z,1007.92
2018-04-15T01:00:53.043Z,1007.9
2018-04-15T01:01:53.031Z,1007.92
2018-04-15T01:02:53.013Z,1007.92
2018-04-15T01:03:52.996Z,1007.89
2018-04-15T01:04:52.982Z,1007.9
2018-04-15T01:05:52.967Z,1007.87
2018-04-15T01:06:52.953Z,1007.89
2018-04-15T01:07:52.936Z,1007.87
2018-04-15T01:08:52.921Z,1007.86
2018-04-15T01:09:52.906Z,1007.86
2018-04-15T01:10:52.892Z,1007.86
2018-04-15T01:11:52.882Z,1007.83
2018-04-15T01:12:52.863Z,1007.78
2018-04-15T01:13:52.847Z,1007.79
2018-04-15T01:14:52.831Z,1007.75
2018-04-15T01:15:52.818Z,1007.73
2018-04-15T01:16:52.805Z,1007.74
2018-04-15T01:17:52.788Z,1007.74
2018-04-15T01:18:52.772Z,1007.74
2018-04-15T01:19:52.756Z,1007.7
2018-04-15T01:20:52.742Z,1007.66
2018-04-15T01:21:52.726Z,1007.71
2018-04-15T01:22:52.711Z,1007.72
2018-04-15T01:23:52.696Z,1007.67
2018-04-15T01:24:52.682Z,1007.67
2018-04-15T01:25:52.667Z,1007.62
2018-04-15T01:26:52.651Z,1007.61
2018-04-15T01:27:52.638Z,1007.6
2018-04-15T01:28:52.623Z,1007.57
2018-04-15T01:29:52.613Z,1007.56
2018-04-15T01:30:52.601Z,1007.56
2018-04-15T01:31:52.576Z,1007.55
2018-04-15T01:32:52.569Z,1007.55
2018-04-15T01:33:52.552Z,1007.52
2018-04-15T01:34:52.536Z,1007.48
2018-04-15T01:35:52.518Z,1007.51
2018-04-15T01:36:52.504Z,1007.46
2018-04-15T01:37:52.493Z,1007.44
2018-04-15T01:38:52.474Z,1007.44
2018-04-15T01:39:52.460Z,1007.39
2018-04-15T01:40:52.444Z,1007.35
2018-04-15T01:41:52.433Z,1007.35
2018-04-15T01:42:52.415Z,1007.41
2018-04-15T01:43:52.398Z,1007.35
2018-04-15T01:44:52.382Z,1007.36
2018-04-15T01:45:52.373Z,1007.36
2018-04-15T01:46:52.354Z,1007.35
2018-04-15T01:47:52.341Z,1007.33
2018-04-15T01:48:52.324Z,1007.35
2018-04-15T01:49:52.310Z,1007.36
2018-04-15T01:50:52.296Z,1007.38
2018-04-15T01:51:52.280Z,1007.32
2018-04-15T01:52:52.266Z,1007.36
2018-04-15T01:53:52.250Z,1007.3
2018-04-15T01:54:52.237Z,1007.22
2018-04-15T01:55:52.222Z,1007.26
2018-04-15T01:56:52.205Z,1007.23
2018-04-15T01:57:52.191Z,1007.16
2018-04-15T01:58:52.190Z,1007.23
2018-04-15T01:59:52.165Z,1007.2
2018-04-15T02:00:52.150Z,1007.16
2018-04-15T02:01:52.144Z,1007.18
2018-04-15T02:02:52.124Z,1007.16
2018-04-15T02:03:52.162Z,1007.14
2018-04-15T02:04:52.094Z,1007.13
2018-04-15T02:05:52.074Z,1007.15
2018-04-15T02:06:52.063Z,1007.14
2018-04-15T02:07:52.045Z,1007.16
2018-04-15T02:08:52.027Z,1007.13
2018-04-15T02:09:52.013Z,1007.11
2018-04-15T02:10:51.999Z,1007.12
2018-04-15T02:11:51.987Z,1007.1
2018-04-15T02:12:51.969Z,1007.13
2018-04-15T02:13:51.956Z,1007.09
2018-04-15T02:14:51.942Z,1007.06
2018-04-15T02:15:51.927Z,1007.05
2018-04-15T02:16:51.908Z,1007.05
2018-04-15T02:17:51.894Z,1007.05
2018-04-15T02:18:51.880Z,1007.03
2018-04-15T02:19:51.865Z,1007.02
2018-04-15T02:20:51.850Z,1007.02
2018-04-15T02:21:51.835Z,1007.03
2018-04-15T02:22:51.820Z,1006.99
2018-04-15T02:23:51.804Z,1006.99
2018-04-15T02:24:51.788Z,1007.01
2018-04-15T02:25:51.775Z,1006.98
2018-04-15T02:26:51.759Z,1007
2018-04-15T02:27:51.743Z,1007.01
2018-04-15T02:28:51.728Z,1007.02
2018-04-15T02:29:51.916Z,1007.03
2018-04-15T02:30:51.698Z,1007.05
2018-04-15T02:31:51.683Z,1006.99
2018-04-15T02:32:51.667Z,1006.99
2018-04-15T02:33:51.656Z,1007.04
2018-04-15T02:34:51.638Z,1007
2018-04-15T02:35:51.623Z,1006.98
2018-04-15T02:36:51.608Z,1006.98
2018-04-15T02:37:51.595Z,1006.95
2018-04-15T02:38:51.577Z,1006.95
2018-04-15T02:39:51.563Z,1006.92
2018-04-15T02:40:51.554Z,1006.9
2018-04-15T02:41:51.531Z,1006.9
2018-04-15T02:42:51.517Z,1006.9
2018-04-15T02:43:51.503Z,1006.96
2018-04-15T02:44:51.487Z,1006.89
2018-04-15T02:45:51.471Z,1006.91
2018-04-15T02:46:51.456Z,1006.89
2018-04-15T02:47:51.441Z,1006.9
2018-04-15T02:48:51.427Z,1006.89
2018-04-15T02:49:51.411Z,1006.91
2018-04-15T02:50:51.399Z,1006.86
2018-04-15T02:51:51.383Z,1006.85
2018-04-15T02:52:51.366Z,1006.84
2018-04-15T02:53:51.351Z,1006.84
2018-04-15T02:54:51.336Z,1006.84
2018-04-15T02:55:51.320Z,1006.88
2018-04-15T02:56:51.305Z,1006.86
2018-04-15T02:57:51.294Z,1006.86
2018-04-15T02:58:51.275Z,1006.94
2018-04-15T02:59:51.263Z,1006.86
2018-04-15T03:00:51.245Z,1006.86
2018-04-15T03:01:51.231Z,1006.93
2018-04-15T03:02:51.216Z,1006.9
2018-04-15T03:03:51.202Z,1006.9
2018-04-15T03:04:51.185Z,1006.87
2018-04-15T03:05:51.176Z,1006.91
2018-04-15T03:06:51.154Z,1006.94
2018-04-15T03:07:51.145Z,1006.93
2018-04-15T03:08:51.131Z,1006.94
2018-04-15T03:09:51.108Z,1006.92
2018-04-15T03:10:51.096Z,1006.91
2018-04-15T03:11:51.079Z,1006.93
2018-04-15T03:12:51.065Z,1006.91
2018-04-15T03:13:51.047Z,1006.91
2018-04-15T03:14:51.035Z,1006.92
2018-04-15T03:15:51.023Z,1006.91
2018-04-15T03:16:51.070Z,1006.97
2018-04-15T03:17:50.992Z,1006.93
2018-04-15T03:18:50.971Z,1006.92
2018-04-15T03:19:50.960Z,1006.91
2018-04-15T03:20:50.942Z,1006.93
2018-04-15T03:21:50.930Z,1006.93
2018-04-15T03:22:50.914Z,1006.94
2018-04-15T03:23:50.899Z,1006.89
2018-04-15T03:24:50.883Z,1006.91
2018-04-15T03:25:50.868Z,1006.93
2018-04-15T03:26:50.852Z,1006.92
2018-04-15T03:27:50.838Z,1006.89
2018-04-15T03:28:50.822Z,1006.9
2018-04-15T03:29:50.807Z,1006.92
2018-04-15T03:30:50.793Z,1006.89
2018-04-15T03:31:50.777Z,1006.92
2018-04-15T03:32:50.766Z,1006.88
2018-04-15T03:33:50.746Z,1006.89
2018-04-15T03:34:50.734Z,1006.88
2018-04-15T03:35:50.717Z,1006.88
2018-04-15T03:36:50.705Z,1006.89
2018-04-15T03:37:50.687Z,1006.89
2018-04-15T03:38:50.671Z,1006.88
2018-04-15T03:39:50.658Z,1006.89
2018-04-15T03:40:50.640Z,1006.85
2018-04-15T03:41:50.626Z,1006.85
2018-04-15T03:42:50.612Z,1006.89
2018-04-15T03:43:50.609Z,1006.85
2018-04-15T03:44:50.579Z,1006.9
2018-04-15T03:45:50.564Z,1006.85
2018-04-15T03:46:50.549Z,1006.83
2018-04-15T03:47:50.536Z,1006.85
2018-04-15T03:48:50.519Z,1006.83
2018-04-15T03:49:50.503Z,1006.77
2018-04-15T03:50:50.489Z,1006.78
2018-04-15T03:51:50.475Z,1006.76
2018-04-15T03:52:50.459Z,1006.75
2018-04-15T03:53:50.444Z,1006.72
2018-04-15T03:54:50.428Z,1006.7
2018-04-15T03:55:50.415Z,1006.75
2018-04-15T03:56:50.399Z,1006.73
2018-04-15T03:57:50.383Z,1006.73
2018-04-15T03:58:50.368Z,1006.73
2018-04-15T03:59:50.352Z,1006.7
2018-04-15T04:00:50.339Z,1006.71
2018-04-15T04:01:50.324Z,1006.66
2018-04-15T04:02:50.307Z,1006.65
2018-04-15T04:03:50.296Z,1006.64
2018-04-15T04:04:50.277Z,1006.64
2018-04-15T04:05:50.261Z,1006.6
2018-04-15T04:06:50.247Z,1006.6
2018-04-15T04:07:50.231Z,1006.64
2018-04-15T04:08:50.215Z,1006.64
2018-04-15T04:09:50.199Z,1006.59
2018-04-15T04:10:50.185Z,1006.6
2018-04-15T04:11:50.170Z,1006.59
2018-04-15T04:12:50.156Z,1006.6
2018-04-15T04:13:50.140Z,1006.61
2018-04-15T04:14:50.124Z,1006.57
2018-04-15T04:15:50.109Z,1006.63
2018-04-15T04:16:50.094Z,1006.6
2018-04-15T04:17:50.081Z,1006.59
2018-04-15T04:18:50.066Z,1006.62
2018-04-15T04:19:50.055Z,1006.62
2018-04-15T04:20:50.034Z,1006.59
2018-04-15T04:21:50.021Z,1006.62
2018-04-15T04:22:50.004Z,1006.64
2018-04-15T04:23:49.987Z,1006.61
2018-04-15T04:24:49.976Z,1006.63
2018-04-15T04:25:49.957Z,1006.61
2018-04-15T04:26:49.945Z,1006.61
2018-04-15T04:27:49.926Z,1006.61
2018-04-15T04:28:49.912Z,1006.6
2018-04-15T04:29:49.900Z,1006.61
2018-04-15T04:30:49.936Z,1006.63
2018-04-15T04:31:49.866Z,1006.64
2018-04-15T04:32:49.853Z,1006.63
2018-04-15T04:33:49.836Z,1006.64
2018-04-15T04:34:49.825Z,1006.66
2018-04-15T04:35:49.805Z,1006.58
2018-04-15T04:36:49.790Z,1006.61
2018-04-15T04:37:49.776Z,1006.6
2018-04-15T04:38:49.761Z,1006.59
2018-04-15T04:39:49.747Z,1006.55
2018-04-15T04:40:49.730Z,1006.63
2018-04-15T04:41:49.743Z,1006.6
2018-04-15T04:42:49.705Z,1006.58
2018-04-15T04:43:49.687Z,1006.61
2018-04-15T04:44:49.672Z,1006.59
2018-04-15T04:45:49.661Z,1006.59
2018-04-15T04:46:49.640Z,1006.6
2018-04-15T04:47:49.625Z,1006.6
2018-04-15T04:48:49.608Z,1006.64
2018-04-15T04:49:49.595Z,1006.62
2018-04-15T04:50:49.581Z,1006.66
2018-04-15T04:51:49.563Z,1006.64
2018-04-15T04:52:49.548Z,1006.65
2018-04-15T04:53:49.533Z,1006.63
2018-04-15T04:54:49.519Z,1006.69
2018-04-15T04:55:49.504Z,1006.69
2018-04-15T04:56:49.487Z,1006.69
2018-04-15T04:57:49.470Z,1006.7
2018-04-15T04:58:49.456Z,1006.69
2018-04-15T04:59:49.444Z,1006.68
2018-04-15T05:00:49.428Z,1006.71
2018-04-15T05:01:49.413Z,1006.69
2018-04-15T05:02:49.402Z,1006.72
2018-04-15T05:03:49.386Z,1006.69
2018-04-15T05:04:49.371Z,1006.68
2018-04-15T05:05:49.353Z,1006.7
2018-04-15T05:06:49.338Z,1006.73
2018-04-15T05:07:49.324Z,1006.73
2018-04-15T05:08:49.308Z,1006.72
2018-04-15T05:09:49.291Z,1006.73
2018-04-15T05:10:49.277Z,1006.76
2018-04-15T05:11:49.261Z,1006.8
2018-04-15T05:12:49.250Z,1006.82
2018-04-15T05:13:49.232Z,1006.79
2018-04-15T05:14:49.217Z,1006.77
2018-04-15T05:15:49.202Z,1006.71
2018-04-15T05:16:49.186Z,1006.76
2018-04-15T05:17:49.173Z,1006.74
2018-04-15T05:18:49.162Z,1006.75
2018-04-15T05:19:49.143Z,1006.76
2018-04-15T05:20:49.130Z,1006.79
2018-04-15T05:21:49.111Z,1006.77
2018-04-15T05:22:49.096Z,1006.75
2018-04-15T05:23:49.083Z,1006.78
2018-04-15T05:24:49.067Z,1006.77
2018-04-15T05:25:49.053Z,1006.77
2018-04-15T05:26:49.036Z,1006.76
2018-04-15T05:27:49.022Z,1006.76
2018-04-15T05:28:49.007Z,1006.77
2018-04-15T05:29:48.992Z,1006.75
2018-04-15T05:30:48.975Z,1006.74
2018-04-15T05:31:48.961Z,1006.72
2018-04-15T05:32:48.945Z,1006.73
2018-04-15T05:33:48.930Z,1006.72
2018-04-15T05:34:48.917Z,1006.7
2018-04-15T05:35:48.916Z,1006.75
2018-04-15T05:36:48.886Z,1006.75
2018-04-15T05:37:48.872Z,1006.69
2018-04-15T05:38:48.857Z,1006.75
2018-04-15T05:39:48.842Z,1006.7
2018-04-15T05:40:48.827Z,1006.71
2018-04-15T05:41:48.810Z,1006.72
2018-04-15T05:42:48.796Z,1006.7
2018-04-15T05:43:48.781Z,1006.69
2018-04-15T05:44:48.765Z,1006.68
2018-04-15T05:45:48.751Z,1006.69
2018-04-15T05:46:48.736Z,1006.7
2018-04-15T05:47:48.722Z,1006.72
2018-04-15T05:48:48.704Z,1006.71
2018-04-15T05:49:48.692Z,1006.69
2018-04-15T05:50:48.675Z,1006.72
2018-04-15T05:51:48.662Z,1006.68
2018-04-15T05:52:48.645Z,1006.72
2018-04-15T05:53:48.650Z,1006.71
2018-04-15T05:54:48.617Z,1006.7
2018-04-15T05:55:48.600Z,1006.73
2018-04-15T05:56:48.586Z,1006.75
2018-04-15T05:57:48.572Z,1006.7
2018-04-15T05:58:48.556Z,1006.71
2018-04-15T05:59:48.540Z,1006.71
2018-04-15T06:00:48.527Z,1006.7
2018-04-15T06:01:48.510Z,1006.69
2018-04-15T06:02:48.497Z,1006.65
2018-04-15T06:03:48.480Z,1006.69
2018-04-15T06:04:48.465Z,1006.67
2018-04-15T06:05:48.452Z,1006.65
2018-04-15T06:06:48.436Z,1006.64
2018-04-15T06:07:48.421Z,1006.63
2018-04-15T06:08:48.406Z,1006.63
2018-04-15T06:09:48.391Z,1006.58
2018-04-15T06:10:48.376Z,1006.57
2018-04-15T06:11:48.362Z,1006.51
2018-04-15T06:12:48.351Z,1006.52
2018-04-15T06:13:48.332Z,1006.48
2018-04-15T06:14:48.316Z,1006.5
2018-04-15T06:15:48.304Z,1006.47
2018-04-15T06:16:48.287Z,1006.48
2018-04-15T06:17:48.272Z,1006.45
2018-04-15T06:18:48.256Z,1006.43
2018-04-15T06:19:48.251Z,1006.43
2018-04-15T06:20:48.232Z,1006.47
2018-04-15T06:21:48.213Z,1006.45
2018-04-15T06:22:48.200Z,1006.45
2018-04-15T06:23:48.184Z,1006.44
2018-04-15T06:24:48.171Z,1006.45
2018-04-15T06:25:48.156Z,1006.46
2018-04-15T06:26:48.144Z,1006.47
2018-04-15T06:27:48.126Z,1006.46
2018-04-15T06:28:48.111Z,1006.46
2018-04-15T06:29:48.095Z,1006.46
2018-04-15T06:30:48.092Z,1006.43
2018-04-15T06:31:48.067Z,1006.43
2018-04-15T06:32:48.053Z,1006.41
2018-04-15T06:33:48.041Z,1006.37
2018-04-15T06:34:48.025Z,1006.4
2018-04-15T06:35:48.007Z,1006.36
2018-04-15T06:36:48.017Z,1006.37
2018-04-15T06:37:47.978Z,1006.37
2018-04-15T06:38:47.965Z,1006.36
2018-04-15T06:39:47.948Z,1006.38
2018-04-15T06:40:47.948Z,1006.35
2018-04-15T06:41:47.920Z,1006.34
2018-04-15T06:42:47.910Z,1006.29
2018-04-15T06:43:47.890Z,1006.32
2018-04-15T06:44:47.876Z,1006.31
2018-04-15T06:45:47.863Z,1006.34
2018-04-15T06:46:47.856Z,1006.33
2018-04-15T06:47:47.832Z,1006.34
2018-04-15T06:48:47.821Z,1006.33
2018-04-15T06:49:47.803Z,1006.28
2018-04-15T06:50:47.807Z,1006.24
2018-04-15T06:51:47.774Z,1006.25
2018-04-15T06:52:47.760Z,1006.22
2018-04-15T06:53:47.745Z,1006.19
2018-04-15T06:54:47.731Z,1006.21
2018-04-15T06:55:47.758Z,1006.16
2018-04-15T06:56:47.707Z,1006.11
2018-04-15T06:57:47.688Z,1006.11
2018-04-15T06:58:47.672Z,1006.07
2018-04-15T06:59:47.659Z,1006.05
2018-04-15T07:00:47.645Z,1006.04
2018-04-15T07:01:47.631Z,1005.95
2018-04-15T07:02:47.627Z,1005.95
2018-04-15T07:03:47.600Z,1005.97
2018-04-15T07:04:47.588Z,1005.98
2018-04-15T07:05:47.573Z,1005.94
2018-04-15T07:06:47.557Z,1005.95
2018-04-15T07:07:47.546Z,1005.94
2018-04-15T07:08:47.526Z,1005.94
2018-04-15T07:09:47.514Z,1005.91
2018-04-15T07:10:47.500Z,1005.87
2018-04-15T07:11:47.486Z,1005.9
2018-04-15T07:12:47.473Z,1005.85
2018-04-15T07:13:47.458Z,1005.83
2018-04-15T07:14:47.444Z,1005.79
2018-04-15T07:15:47.431Z,1005.78
2018-04-15T07:16:47.418Z,1005.77
2018-04-15T07:17:47.402Z,1005.74
2018-04-15T07:18:47.387Z,1005.72
2018-04-15T07:19:47.372Z,1005.73
2018-04-15T07:20:47.358Z,1005.75
2018-04-15T07:21:47.375Z,1005.73
2018-04-15T07:22:47.332Z,1005.73
2018-04-15T07:23:47.318Z,1005.73
2018-04-15T07:24:47.303Z,1005.72
2018-04-15T07:25:47.291Z,1005.75
2018-04-15T07:26:47.278Z,1005.76
2018-04-15T07:27:47.261Z,1005.76
2018-04-15T07:28:47.256Z,1005.77
2018-04-15T07:29:47.235Z,1005.77
2018-04-15T07:30:47.220Z,1005.81
2018-04-15T07:31:47.210Z,1005.81
2018-04-15T07:32:47.195Z,1005.81
2018-04-15T07:33:47.180Z,1005.8
2018-04-15T07:34:47.167Z,1005.8
2018-04-15T07:35:47.152Z,1005.77
2018-04-15T07:36:47.140Z,1005.76
2018-04-15T07:37:47.128Z,1005.71
2018-04-15T07:38:47.116Z,1005.72
2018-04-15T07:39:47.099Z,1005.67
2018-04-15T07:40:47.087Z,1005.67
2018-04-15T07:41:47.071Z,1005.63
2018-04-15T07:42:47.060Z,1005.66
2018-04-15T07:43:47.049Z,1005.66
2018-04-15T07:44:47.041Z,1005.62
2018-04-15T07:45:47.022Z,1005.59
2018-04-15T07:46:47.010Z,1005.53
2018-04-15T07:47:46.997Z,1005.54
2018-04-15T07:48:46.980Z,1005.53
2018-04-15T07:49:46.968Z,1005.52
2018-04-15T07:50:46.956Z,1005.53
2018-04-15T07:51:46.940Z,1005.5
2018-04-15T07:52:46.929Z,1005.51
2018-04-15T07:53:46.922Z,1005.49
2018-04-15T07:54:46.904Z,1005.52
2018-04-15T07:55:46.889Z,1005.45
2018-04-15T07:56:46.877Z,1005.46
2018-04-15T07:57:46.864Z,1005.44
2018-04-15T07:58:46.856Z,1005.45
2018-04-15T07:59:46.839Z,1005.41
2018-04-15T08:00:46.826Z,1005.41
2018-04-15T08:01:46.813Z,1005.4
2018-04-15T08:02:46.803Z,1005.37
2018-04-15T08:03:46.794Z,1005.37
2018-04-15T08:04:46.775Z,1005.35
2018-04-15T08:05:46.765Z,1005.32
2018-04-15T08:06:46.751Z,1005.32
2018-04-15T08:07:46.745Z,1005.3
2018-04-15T08:08:46.724Z,1005.31
2018-04-15T08:09:46.716Z,1005.32
2018-04-15T08:10:46.701Z,1005.29
2018-04-15T08:11:46.688Z,1005.29
2018-04-15T08:12:46.678Z,1005.28
2018-04-15T08:13:46.666Z,1005.26
2018-04-15T08:14:46.652Z,1005.26
2018-04-15T08:15:46.641Z,1005.25
2018-04-15T08:16:46.631Z,1005.6
2018-04-15T08:17:46.617Z,1005.53
2018-04-15T08:18:46.605Z,1005.63
2018-04-15T08:19:46.596Z,1005.57
2018-04-15T08:20:46.588Z,1005.55
2018-04-15T08:21:46.573Z,1005.63
2018-04-15T08:22:46.562Z,1005.71
2018-04-15T08:23:46.556Z,1005.62
2018-04-15T08:24:46.549Z,1005.52
2018-04-15T08:25:46.535Z,1005.49
2018-04-15T08:26:46.528Z,1005.62
2018-04-15T08:27:46.521Z,1005.57
2018-04-15T08:28:46.514Z,1005.62
2018-04-15T08:29:46.504Z,1005.65
2018-04-15T08:30:46.699Z,1005.49
2018-04-15T08:31:46.492Z,1005.61
2018-04-15T08:32:46.487Z,1005.6
2018-04-15T08:33:46.479Z,1005.44
2018-04-15T08:34:46.473Z,1005.42
2018-04-15T08:35:46.466Z,1005.43
2018-04-15T08:36:46.464Z,1005.52
2018-04-15T08:37:46.456Z,1005.44
2018-04-15T08:38:46.451Z,1005.47
2018-04-15T08:39:46.445Z,1005.49
2018-04-15T08:40:46.440Z,1005.45
2018-04-15T08:41:46.436Z,1005.55
2018-04-15T08:42:46.432Z,1005.56
2018-04-15T08:43:46.429Z,1005.53
2018-04-15T08:44:46.422Z,1005.44
2018-04-15T08:45:46.420Z,1005.51
2018-04-15T08:46:46.416Z,1005.49
2018-04-15T08:47:46.415Z,1005.43
2018-04-15T08:48:46.410Z,1005.39
2018-04-15T08:49:46.406Z,1005.5
2018-04-15T08:50:46.400Z,1005.47
2018-04-15T08:51:46.402Z,1005.51
2018-04-15T08:52:46.393Z,1005.53
2018-04-15T08:53:46.395Z,1005.46
2018-04-15T08:54:46.386Z,1005.34
2018-04-15T08:55:46.384Z,1005.39
2018-04-15T08:56:46.383Z,1005.43
2018-04-15T08:57:46.377Z,1005.46
2018-04-15T08:58:46.374Z,1005.48
2018-04-15T08:59:46.372Z,1005.47
2018-04-15T09:00:46.366Z,1005.49
2018-04-15T09:01:46.363Z,1005.44
2018-04-15T09:02:46.359Z,1005.35
2018-04-15T09:03:46.361Z,1005.34
2018-04-15T09:04:46.351Z,1005.39
2018-04-15T09:05:46.347Z,1005.41
2018-04-15T09:06:46.347Z,1005.33
2018-04-15T09:07:46.341Z,1005.39
2018-04-15T09:08:46.332Z,1005.34
2018-04-15T09:09:46.336Z,1005.23
2018-04-15T09:10:46.324Z,1005.33
2018-04-15T09:11:46.323Z,1005.26
2018-04-15T09:12:46.314Z,1005.32
2018-04-15T09:13:46.313Z,1005.31
2018-04-15T09:14:46.309Z,1005.29
2018-04-15T09:15:46.299Z,1005.32
2018-04-15T09:16:46.294Z,1005.4
2018-04-15T09:17:46.292Z,1005.32
2018-04-15T09:18:46.283Z,1005.25
2018-04-15T09:19:46.283Z,1005.25
2018-04-15T09:20:46.274Z,1005.34
2018-04-15T09:21:46.274Z,1005.35
2018-04-15T09:22:46.265Z,1005.39
2018-04-15T09:23:46.262Z,1005.38
2018-04-15T09:24:46.255Z,1005.38
2018-04-15T09:25:46.253Z,1005.13
2018-04-15T09:26:46.247Z,1005.12
2018-04-15T09:27:46.243Z,1005.16
2018-04-15T09:28:46.235Z,1005.27
2018-04-15T09:29:46.233Z,1005.31
2018-04-15T09:30:46.230Z,1005.22
2018-04-15T09:31:46.224Z,1005.09
2018-04-15T09:32:46.218Z,1005.24
2018-04-15T09:33:46.215Z,1005.29
2018-04-15T09:34:46.209Z,1005.16
2018-04-15T09:35:46.213Z,1005.08
2018-04-15T09:36:46.202Z,1005.16
2018-04-15T09:37:46.200Z,1005.1
2018-04-15T09:38:46.191Z,1005.13
2018-04-15T09:39:46.186Z,1005.08
2018-04-15T09:40:46.181Z,1005.09
2018-04-15T09:41:46.177Z,1005.01
2018-04-15T09:42:46.171Z,1005.03
2018-04-15T09:43:46.170Z,1004.96
2018-04-15T09:44:46.167Z,1004.94
2018-04-15T09:45:46.159Z,1004.92
2018-04-15T09:46:46.153Z,1004.9
2018-04-15T09:47:46.148Z,1004.89
2018-04-15T09:48:46.143Z,1004.85
2018-04-15T09:49:46.189Z,1004.8
2018-04-15T09:50:46.137Z,1004.79
2018-04-15T09:51:46.131Z,1004.79
2018-04-15T09:52:46.125Z,1004.72
2018-04-15T09:53:46.118Z,1004.84
2018-04-15T09:54:46.115Z,1004.83
2018-04-15T09:55:46.111Z,1004.85
2018-04-15T09:56:46.105Z,1004.79
2018-04-15T09:57:46.099Z,1004.79
2018-04-15T09:58:46.097Z,1004.78
2018-04-15T09:59:46.090Z,1004.81
2018-04-15T10:00:46.084Z,1004.81
2018-04-15T10:01:46.125Z,1004.78
2018-04-15T10:02:46.081Z,1004.75
2018-04-15T10:03:46.070Z,1004.82
2018-04-15T10:04:46.066Z,1004.86
2018-04-15T10:05:46.062Z,1004.85
2018-04-15T10:06:46.057Z,1004.86
2018-04-15T10:07:46.055Z,1004.81
2018-04-15T10:08:46.052Z,1004.8
2018-04-15T10:09:46.043Z,1004.75
2018-04-15T10:10:46.037Z,1004.76
2018-04-15T10:11:46.032Z,1004.77
2018-04-15T10:12:46.029Z,1004.8
2018-04-15T10:13:46.022Z,1004.71
2018-04-15T10:14:46.017Z,1004.69
2018-04-15T10:15:46.013Z,1004.69
2018-04-15T10:16:46.008Z,1004.67
2018-04-15T10:17:46.004Z,1004.79
2018-04-15T10:18:45.997Z,1004.81
2018-04-15T10:19:45.992Z,1004.79
2018-04-15T10:20:45.991Z,1004.84
2018-04-15T10:21:45.985Z,1004.88
2018-04-15T10:22:45.982Z,1004.91
2018-04-15T10:23:45.974Z,1004.87
2018-04-15T10:24:45.972Z,1004.81
2018-04-15T10:25:45.966Z,1004.76
2018-04-15T10:26:45.964Z,1004.78
2018-04-15T10:27:45.959Z,1004.81
2018-04-15T10:28:45.958Z,1004.8
2018-04-15T10:29:45.952Z,1004.67
2018-04-15T10:30:45.951Z,1004.71
2018-04-15T10:31:45.946Z,1004.76
2018-04-15T10:32:46.018Z,1004.72
2018-04-15T10:33:45.940Z,1004.7
2018-04-15T10:34:45.937Z,1004.75
2018-04-15T10:35:45.935Z,1004.74
2018-04-15T10:36:45.932Z,1004.8
2018-04-15T10:37:45.927Z,1004.72
2018-04-15T10:38:45.951Z,1004.66
2018-04-15T10:39:45.921Z,1004.71
2018-04-15T10:40:45.919Z,1004.63
2018-04-15T10:41:45.916Z,1004.67
2018-04-15T10:42:45.913Z,1004.68
2018-04-15T10:43:45.912Z,1004.66
2018-04-15T10:44:45.906Z,1004.68
2018-04-15T10:45:45.901Z,1004.69
2018-04-15T10:46:45.904Z,1004.7
2018-04-15T10:47:45.897Z,1004.66
2018-04-15T10:48:45.895Z,1004.74
2018-04-15T10:49:45.891Z,1004.59
2018-04-15T10:50:45.889Z,1004.58
2018-04-15T10:51:45.884Z,1004.68
2018-04-15T10:52:45.882Z,1004.67
2018-04-15T10:53:45.878Z,1004.66
2018-04-15T10:54:45.878Z,1004.63
2018-04-15T10:55:45.870Z,1004.65
2018-04-15T10:56:45.870Z,1004.65
2018-04-15T10:57:45.869Z,1004.62
2018-04-15T10:58:45.867Z,1004.65
2018-04-15T10:59:45.869Z,1004.63
2018-04-15T11:00:45.863Z,1004.67
2018-04-15T11:01:45.863Z,1004.63
2018-04-15T11:02:45.863Z,1004.63
2018-04-15T11:03:45.860Z,1004.61
2018-04-15T11:04:45.863Z,1004.58
2018-04-15T11:05:45.865Z,1004.55
2018-04-15T11:06:45.859Z,1004.49
2018-04-15T11:07:45.862Z,1004.53
2018-04-15T11:08:45.877Z,1004.56
2018-04-15T11:09:45.867Z,1004.53
2018-04-15T11:10:45.864Z,1004.34
2018-04-15T11:11:45.867Z,1004.35
2018-04-15T11:12:45.868Z,1004.43
2018-04-15T11:13:45.871Z,1004.53
2018-04-15T11:14:45.874Z,1004.36
2018-04-15T11:15:45.879Z,1004.47
2018-04-15T11:16:45.877Z,1004.59
2018-04-15T11:17:45.882Z,1004.58
2018-04-15T11:18:45.883Z,1004.55
2018-04-15T11:19:45.887Z,1004.55
2018-04-15T11:20:45.890Z,1004.54
2018-04-15T11:21:45.894Z,1004.49
2018-04-15T11:22:45.896Z,1004.33
2018-04-15T11:23:45.900Z,1004.55
2018-04-15T11:24:45.906Z,1004.48
2018-04-15T11:25:45.910Z,1004.5
2018-04-15T11:26:45.916Z,1004.53
2018-04-15T11:27:45.917Z,1004.5
2018-04-15T11:28:45.925Z,1004.51
2018-04-15T11:29:45.929Z,1004.51
2018-04-15T11:30:45.931Z,1004.5
2018-04-15T11:31:45.934Z,1004.48
2018-04-15T11:32:45.939Z,1004.5
2018-04-15T11:33:45.945Z,1004.54
2018-04-15T11:34:45.955Z,1004.52
2018-04-15T11:35:45.956Z,1004.47
2018-04-15T11:36:45.973Z,1004.48
2018-04-15T11:37:45.968Z,1004.49
2018-04-15T11:38:45.975Z,1004.41
2018-04-15T11:39:45.979Z,1004.48
2018-04-15T11:40:45.984Z,1004.32
2018-04-15T11:41:45.989Z,1004.32
2018-04-15T11:42:45.995Z,1004.27
2018-04-15T11:43:45.999Z,1004.34
2018-04-15T11:44:46.009Z,1004.37
2018-04-15T11:45:46.015Z,1004.46
2018-04-15T11:46:46.018Z,1004.45
2018-04-15T11:47:46.022Z,1004.43
2018-04-15T11:48:46.022Z,1004.39
2018-04-15T11:49:46.030Z,1004.18
2018-04-15T11:50:46.035Z,1004.19
2018-04-15T11:51:46.037Z,1004.41
2018-04-15T11:52:46.043Z,1004.31
2018-04-15T11:53:46.046Z,1004.28
2018-04-15T11:54:46.049Z,1004.19
2018-04-15T11:55:46.055Z,1004.19
2018-04-15T11:56:46.059Z,1004.16
2018-04-15T11:57:46.062Z,1004.16
2018-04-15T11:58:46.066Z,1004.21
2018-04-15T11:59:46.073Z,1004.26
2018-04-15T12:00:46.083Z,1004.27
2018-04-15T12:01:46.078Z,1004.26
2018-04-15T12:02:46.083Z,1004.18
2018-04-15T12:03:46.079Z,1004.21
2018-04-15T12:04:46.081Z,1004.17
2018-04-15T12:05:46.082Z,1004.21
2018-04-15T12:06:46.084Z,1004.2
2018-04-15T12:07:46.083Z,1004.2
2018-04-15T12:08:46.088Z,1004.2